Time;durP1;ratioP1;P1;durP2;ratioP2;P2;SDS_P1;SDS_P2;PMS_P1;PMS_P2;Temp;Humidity;BMP_temperature;BMP_pressure;BME280_temperature;BME280_humidity;BME280_pressure;Samples;Min_cycle;Max_cycle;Signal;HPM_P1;HPM_P2
2022/10/12 00:02:23;;;;;;;;;;;;;;;15.74;68.14;100379.28;5050218;28;19925;-88
2022/10/12 00:04:48;;;;;;;;;;;;;;;15.84;68.50;100379.94;5051004;28;20730;-89
2022/10/12 00:07:14;;;;;;;;;;;;;;;15.91;67.86;100385.06;5050941;28;19916;-89
2022/10/12 00:09:40;;;;;;;;;;;;;;;15.97;67.57;100381.34;5050575;28;19913;-88
2022/10/12 00:12:05;;;;;;;;;;;;;;;16.12;67.43;100388.06;5050522;28;19917;-89
2022/10/12 00:14:30;;;;;;;;;;;;;;;16.32;66.67;100386.66;5050490;28;19923;-89
2022/10/12 00:16:57;;;;;;;;;;;;;;;16.17;67.06;100380.81;5050152;28;19927;-88
2022/10/12 00:19:22;;;;;;;;;;;;;;;16.14;67.10;100388.03;5050336;28;20330;-88
2022/10/12 00:21:47;;;;;;;;;;;;;;;16.19;67.06;100383.44;5050904;28;19920;-87
2022/10/12 00:24:12;;;;;;;;;;;;;;;16.21;66.78;100378.97;5050986;28;20311;-88
2022/10/12 00:26:38;;;;;;;;;;;;;;;16.22;66.83;100386.03;5050041;28;19970;-89
2022/10/12 00:29:03;;;;;;;;;;;;;;;16.31;66.52;100385.75;5050030;28;19962;-89
2022/10/12 00:31:30;;;;;;;;;;;;;;;16.35;66.16;100382.13;5048646;28;20841;-88
2022/10/12 00:33:58;;;;;;;;;;;;;;;16.34;66.28;100382.16;5050195;28;19921;-88
2022/10/12 00:36:24;;;;;;;;;;;;;;;16.38;66.38;100379.38;5050305;28;20007;-88
2022/10/12 00:38:51;;;;;;;;;;;;;;;16.33;66.54;100383.97;5049371;28;19960;-88
2022/10/12 00:41:17;;;;;;;;;;;;;;;16.42;66.20;100388.13;5048486;28;20407;-89
2022/10/12 00:43:44;;;;;;;;;;;;;;;16.47;66.47;100394.22;5049523;28;19972;-89
2022/10/12 00:46:21;;;;;;;;;;;;;;;16.50;66.43;100390.56;5049951;28;20512;-89
2022/10/12 00:48:49;;;;;;;;;;;;;;;16.46;66.66;100389.78;5050584;28;19924;-89
2022/10/12 00:51:15;;;;;;;;;;;;;;;16.48;67.00;100382.63;5049953;28;19917;-89
2022/10/12 00:53:45;;;;;;;;;;;;;;;16.46;67.19;100387.13;5050081;28;19916;-90
2022/10/12 00:56:14;;;;;;;;;;;;;;;16.49;67.30;100384.38;5049976;28;19916;-89
2022/10/12 00:58:39;;;;;;;;;;;;;;;16.46;67.10;100388.00;5061214;28;19921;-89
2022/10/12 01:01:06;;;;;;;;;;;;;;;16.43;67.60;100385.41;5055767;28;19986;-88
2022/10/12 01:03:32;;;;;;;;;;;;;;;16.46;67.08;100388.00;5049925;28;19913;-89
2022/10/12 01:05:58;;;;;;;;;;;;;;;16.23;67.91;100391.31;5050297;28;19912;-89
2022/10/12 01:08:23;;;;;;;;;;;;;;;16.07;68.66;100392.66;5050137;28;19917;-90
2022/10/12 01:10:49;;;;;;;;;;;;;;;16.02;68.66;100390.09;5049423;28;19943;-89
2022/10/12 01:13:14;;;;;;;;;;;;;;;16.11;68.24;100389.88;5049392;28;19966;-89
2022/10/12 01:15:44;;;;;;;;;;;;;;;16.13;68.66;100391.59;5048898;28;19982;-88
2022/10/12 01:18:17;;;;;;;;;;;;;;;16.15;68.30;100387.97;5049018;28;19920;-88
2022/10/12 01:20:47;;;;;;;;;;;;;;;16.22;68.20;100389.56;5048479;28;19921;-88
2022/10/12 01:23:15;;;;;;;;;;;;;;;16.16;68.22;100400.38;5049394;28;19927;-88
2022/10/12 01:26:02;;;;;;;;;;;;;;;16.17;68.28;100396.78;5048964;28;19920;-89
2022/10/12 01:28:30;;;;;;;;;;;;;;;16.17;68.71;100388.81;5049119;28;19917;-87
2022/10/12 01:31:01;;;;;;;;;;;;;;;16.18;68.10;100384.38;5048852;28;19928;-88
2022/10/12 01:33:32;;;;;;;;;;;;;;;16.13;68.51;100381.84;5048590;28;19917;-87
2022/10/12 01:36:24;;;;;;;;;;;;;;;16.05;68.76;100383.81;5049049;28;19913;-87
2022/10/12 01:38:57;;;;;;;;;;;;;;;16.06;68.82;100385.56;5065513;28;20397;-88
2022/10/12 01:41:35;;;;;;;;;;;;;;;16.13;69.17;100395.16;5048572;28;19917;-88
2022/10/12 01:44:00;;;;;;;;;;;;;;;16.17;68.63;100394.13;5047280;28;20338;-88
2022/10/12 01:46:26;;;;;;;;;;;;;;;16.16;68.94;100400.38;5049459;28;19916;-91
2022/10/12 01:48:54;;;;;;;;;;;;;;;16.15;69.41;100398.63;5048792;28;19951;-88
2022/10/12 01:51:28;;;;;;;;;;;;;;;16.09;69.16;100401.44;5048264;28;19917;-88
2022/10/12 01:54:07;;;;;;;;;;;;;;;16.11;69.39;100402.28;5049233;28;19912;-88
2022/10/12 01:56:47;;;;;;;;;;;;;;;16.14;69.21;100398.66;5049418;28;19924;-88
2022/10/12 01:59:42;;;;;;;;;;;;;;;16.07;69.44;100397.97;5048368;28;19916;-88
2022/10/12 02:02:37;;;;;;;;;;;;;;;16.07;69.85;100398.84;5047769;28;19912;-88
2022/10/12 02:05:13;;;;;;;;;;;;;;;16.09;69.73;100402.31;4996935;28;19910;-89
2022/10/12 02:07:51;;;;;;;;;;;;;;;16.16;69.53;100397.72;5051255;28;19913;-90
2022/10/12 02:10:42;;;;;;;;;;;;;;;16.05;69.87;100403.34;5049930;28;19921;-92
2022/10/12 02:13:10;;;;;;;;;;;;;;;16.07;69.34;100397.97;5057521;28;19912;-89
2022/10/12 02:15:37;;;;;;;;;;;;;;;16.06;69.72;100394.41;5073968;28;19917;-90
2022/10/12 02:18:04;;;;;;;;;;;;;;;16.07;69.83;100400.63;5058601;28;19921;-90
2022/10/12 02:20:30;;;;;;;;;;;;;;;16.06;70.13;100398.88;5050109;28;19920;-89
2022/10/12 02:22:55;;;;;;;;;;;;;;;15.99;70.69;100402.59;5049201;28;19927;-89
2022/10/12 02:25:22;;;;;;;;;;;;;;;16.03;70.65;100401.63;5047958;28;19916;-87
2022/10/12 02:27:55;;;;;;;;;;;;;;;15.99;70.19;100405.25;5055472;28;19912;-85
2022/10/12 02:30:22;;;;;;;;;;;;;;;16.04;70.15;100400.72;5038667;28;20401;-87
2022/10/12 02:32:54;;;;;;;;;;;;;;;16.06;70.09;100405.06;5051537;28;20012;-88
2022/10/12 02:35:25;;;;;;;;;;;;;;;15.98;69.71;100400.88;5050071;28;19966;-88
2022/10/12 02:37:56;;;;;;;;;;;;;;;15.93;69.30;100403.66;5049881;28;19935;-87
2022/10/12 02:40:31;;;;;;;;;;;;;;;15.97;69.42;100407.09;5047443;28;19927;-87
2022/10/12 02:43:05;;;;;;;;;;;;;;;16.06;69.76;100412.19;5047717;28;19931;-87
2022/10/12 02:45:32;;;;;;;;;;;;;;;16.05;70.12;100410.41;5047885;28;19913;-88
2022/10/12 02:47:58;;;;;;;;;;;;;;;16.09;69.96;100402.31;5047920;28;19974;-88
2022/10/12 02:50:24;;;;;;;;;;;;;;;16.09;69.20;100404.97;5047391;28;19920;-87
2022/10/12 02:52:50;;;;;;;;;;;;;;;16.06;68.72;100402.41;5048065;28;19912;-88
2022/10/12 02:55:15;;;;;;;;;;;;;;;16.07;68.51;100398.84;5048465;28;20311;-88
2022/10/12 02:57:41;;;;;;;;;;;;;;;16.03;68.47;100412.25;5047522;28;19923;-89
2022/10/12 03:00:07;;;;;;;;;;;;;;;16.10;68.42;100417.38;5047772;28;19923;-89
2022/10/12 03:02:32;;;;;;;;;;;;;;;16.14;68.68;100417.31;5049258;28;19927;-90
2022/10/12 03:04:57;;;;;;;;;;;;;;;16.14;68.84;100420.81;5048875;28;20397;-88
2022/10/12 03:07:24;;;;;;;;;;;;;;;16.16;68.95;100416.34;5063648;28;19917;-88
2022/10/12 03:09:49;;;;;;;;;;;;;;;16.20;68.33;100414.47;5048442;28;19920;-89
2022/10/12 03:12:15;;;;;;;;;;;;;;;16.07;68.07;100424.59;5048853;28;19916;-87
2022/10/12 03:14:40;;;;;;;;;;;;;;;16.05;68.30;100424.63;5047021;28;20519;-87
2022/10/12 03:17:07;;;;;;;;;;;;;;;16.06;68.21;100431.66;5047000;28;20418;-87
2022/10/12 03:19:32;;;;;;;;;;;;;;;16.05;68.63;100416.63;5047366;28;19934;-87
2022/10/12 03:21:57;;;;;;;;;;;;;;;16.00;68.49;100425.66;5046951;28;20011;-86
2022/10/12 03:24:23;;;;;;;;;;;;;;;16.03;68.92;100417.59;5046100;28;21447;-87
2022/10/12 03:26:48;;;;;;;;;;;;;;;16.01;68.67;100420.28;5053958;28;19924;-88
2022/10/12 03:29:14;;;;;;;;;;;;;;;15.99;69.07;100421.22;5048637;28;19916;-91
2022/10/12 03:31:39;;;;;;;;;;;;;;;15.99;69.20;100418.56;5050851;28;19959;-91
2022/10/12 03:34:05;;;;;;;;;;;;;;;16.09;68.82;100423.59;5064215;28;19975;-90
2022/10/12 03:36:32;;;;;;;;;;;;;;;16.11;69.02;100420.91;5070333;28;19969;-88
2022/10/12 03:38:59;;;;;;;;;;;;;;;16.14;68.99;100419.97;5069714;28;19912;-91
2022/10/12 03:41:24;;;;;;;;;;;;;;;16.16;69.28;100419.03;5057600;28;19916;-89
2022/10/12 03:43:49;;;;;;;;;;;;;;;16.10;69.15;100419.19;5050513;28;20413;-88
2022/10/12 03:46:15;;;;;;;;;;;;;;;16.16;68.73;100418.13;5050428;28;19927;-91
2022/10/12 03:48:40;;;;;;;;;;;;;;;16.12;68.73;100414.69;5046936;28;19916;-92
2022/10/12 03:51:05;;;;;;;;;;;;;;;16.05;69.21;100418.41;5047550;28;20054;-87
2022/10/12 03:53:31;;;;;;;;;;;;;;;16.07;69.33;100414.81;5047636;28;20394;-91
2022/10/12 03:55:56;;;;;;;;;;;;;;;16.06;69.01;100413.03;5046905;28;20322;-91
2022/10/12 03:58:22;;;;;;;;;;;;;;;15.92;69.65;100412.53;5048877;28;19920;-92
2022/10/12 04:00:52;;;;;;;;;;;;;;;15.96;69.60;100408.00;5048986;28;19966;-93
2022/10/12 04:03:17;;;;;;;;;;;;;;;15.99;69.66;100416.78;5045520;28;20366;-94
2022/10/12 04:05:42;;;;;;;;;;;;;;;15.93;70.49;100416.97;5050468;28;19917;-96
2022/10/12 04:08:09;;;;;;;;;;;;;;;15.93;70.44;100419.63;5049328;28;19919;-87
2022/10/12 04:10:34;;;;;;;;;;;;;;;15.91;70.76;100411.69;5048029;28;20305;-94
2022/10/12 04:13:00;;;;;;;;;;;;;;;15.81;70.94;100418.13;5049826;28;19923;-90
2022/10/12 04:15:25;;;;;;;;;;;;;;;15.71;71.50;100408.63;5050097;28;20373;-91
2022/10/12 04:17:51;;;;;;;;;;;;;;;15.69;71.53;100413.97;5052236;28;19920;-90
2022/10/12 04:20:17;;;;;;;;;;;;;;;15.72;71.62;100418.31;5050595;28;19999;-90
2022/10/12 04:22:43;;;;;;;;;;;;;;;15.77;71.68;100413.81;5053097;28;20019;-90
2022/10/12 04:25:10;;;;;;;;;;;;;;;15.87;71.61;100414.44;5049031;28;19943;-89
2022/10/12 04:27:35;;;;;;;;;;;;;;;15.92;71.49;100415.19;5049329;28;20322;-90
2022/10/12 04:30:00;;;;;;;;;;;;;;;15.94;71.40;100426.66;5049830;28;19917;-88
2022/10/12 04:32:25;;;;;;;;;;;;;;;16.07;71.10;100424.59;5051784;28;19912;-91
2022/10/12 04:34:51;;;;;;;;;;;;;;;16.02;71.02;100426.47;5050208;28;20364;-89
2022/10/12 04:37:16;;;;;;;;;;;;;;;16.02;70.83;100423.81;5049244;28;19921;-93
2022/10/12 04:39:41;;;;;;;;;;;;;;;16.00;71.05;100423.84;5052557;28;19920;-92
2022/10/12 04:42:08;;;;;;;;;;;;;;;15.82;71.54;100425.22;5066028;28;20595;-91
2022/10/12 04:44:34;;;;;;;;;;;;;;;15.83;71.63;100431.38;5049930;28;19916;-92
2022/10/12 04:47:00;;;;;;;;;;;;;;;15.89;71.73;100432.09;5050752;28;19923;-92
2022/10/12 04:49:26;;;;;;;;;;;;;;;15.94;71.40;100429.31;5050868;28;19929;-91
2022/10/12 04:51:51;;;;;;;;;;;;;;;15.92;71.48;100432.03;5051062;28;19944;-90
2022/10/12 04:54:16;;;;;;;;;;;;;;;15.93;71.73;100432.91;5051288;28;19938;-90
2022/10/12 04:56:42;;;;;;;;;;;;;;;16.00;71.15;100428.31;5048416;28;20394;-89
2022/10/12 04:59:07;;;;;;;;;;;;;;;16.10;70.82;100437.81;5049520;28;20373;-94
2022/10/12 05:01:32;;;;;;;;;;;;;;;16.09;70.91;100446.69;5050304;28;19928;-90
2022/10/12 05:03:59;;;;;;;;;;;;;;;16.07;71.13;100448.53;5049691;28;19921;-90
2022/10/12 05:06:24;;;;;;;;;;;;;;;16.00;70.90;100444.28;5049859;28;19924;-93
2022/10/12 05:08:49;;;;;;;;;;;;;;;15.96;70.63;100442.59;5060159;28;19920;-90
2022/10/12 05:11:15;;;;;;;;;;;;;;;15.97;70.93;100452.34;5046410;28;19921;-89
2022/10/12 05:13:40;;;;;;;;;;;;;;;15.91;71.78;100454.25;5047088;28;19916;-86
2022/10/12 05:16:05;;;;;;;;;;;;;;;16.05;71.78;100447.69;5047275;28;19912;-87
2022/10/12 05:18:31;;;;;;;;;;;;;;;16.20;71.64;100449.94;5047647;28;20382;-87
2022/10/12 05:20:56;;;;;;;;;;;;;;;16.38;71.11;100461.03;5048246;28;19916;-87
2022/10/12 05:23:21;;;;;;;;;;;;;;;16.53;70.37;100465.94;5047335;28;20011;-88
2022/10/12 05:25:47;;;;;;;;;;;;;;;16.67;69.53;100454.91;5047751;28;19920;-88
2022/10/12 05:28:12;;;;;;;;;;;;;;;16.71;69.30;100459.22;5045550;28;20621;-90
2022/10/12 05:30:37;;;;;;;;;;;;;;;16.71;69.07;100472.53;5047459;28;19954;-87
2022/10/12 05:33:03;;;;;;;;;;;;;;;16.63;69.25;100467.41;5047789;28;19978;-87
2022/10/12 05:35:28;;;;;;;;;;;;;;;16.68;69.30;100464.63;5064006;28;19916;-90
2022/10/12 05:37:53;;;;;;;;;;;;;;;16.69;69.32;100470.84;5047853;28;19924;-89
2022/10/12 05:40:19;;;;;;;;;;;;;;;16.78;69.04;100473.25;5045911;28;19930;-87
2022/10/12 05:42:44;;;;;;;;;;;;;;;16.85;68.82;100477.47;5047974;28;19923;-87
2022/10/12 05:45:10;;;;;;;;;;;;;;;16.92;68.51;100473.75;5049020;28;19923;-87
2022/10/12 05:47:36;;;;;;;;;;;;;;;16.93;68.43;100475.53;5051811;28;20015;-88
2022/10/12 05:50:01;;;;;;;;;;;;;;;16.94;68.38;100482.56;5051195;28;19913;-87
2022/10/12 05:52:26;;;;;;;;;;;;;;;17.02;68.20;100484.16;5048998;28;19923;-88
2022/10/12 05:54:51;;;;;;;;;;;;;;;16.97;68.52;100484.28;5062732;28;19917;-87
2022/10/12 05:57:18;;;;;;;;;;;;;;;16.95;68.48;100497.66;5057838;28;20390;-87
2022/10/12 05:59:43;;;;;;;;;;;;;;;16.98;68.52;100491.38;5048722;28;19921;-89
2022/10/12 06:02:13;;;;;;;;;;;;;;;17.03;68.19;100502.75;5048646;28;19917;-87
2022/10/12 06:04:38;;;;;;;;;;;;;;;17.08;68.00;100498.16;5049294;28;19955;-88
2022/10/12 06:07:05;;;;;;;;;;;;;;;17.17;67.73;100500.56;5048251;28;20032;-88
2022/10/12 06:09:31;;;;;;;;;;;;;;;17.32;66.86;100501.03;5048731;28;20070;-87
2022/10/12 06:11:56;;;;;;;;;;;;;;;17.32;66.68;100501.91;5048514;28;20008;-87
2022/10/12 06:14:21;;;;;;;;;;;;;;;17.41;66.25;100503.44;5063514;28;19917;-88
2022/10/12 06:16:47;;;;;;;;;;;;;;;17.45;66.00;100505.06;5048502;28;19920;-88
2022/10/12 06:19:12;;;;;;;;;;;;;;;17.41;65.71;100505.22;5048445;28;19986;-88
2022/10/12 06:21:38;;;;;;;;;;;;;;;17.24;65.49;100511.94;5048691;28;19917;-89
2022/10/12 06:24:04;;;;;;;;;;;;;;;17.16;65.44;100517.50;5048183;28;20007;-88
2022/10/12 06:26:30;;;;;;;;;;;;;;;17.18;65.06;100518.31;5048908;28;20443;-88
2022/10/12 06:28:55;;;;;;;;;;;;;;;17.13;65.32;100522.03;5048586;28;19916;-87
2022/10/12 06:31:20;;;;;;;;;;;;;;;17.14;65.48;100523.78;5047995;28;19919;-89
2022/10/12 06:33:46;;;;;;;;;;;;;;;17.15;65.69;100523.75;5048238;28;20446;-88
2022/10/12 06:36:11;;;;;;;;;;;;;;;17.41;65.63;100532.78;5046784;28;19940;-88
2022/10/12 06:38:36;;;;;;;;;;;;;;;17.41;65.66;100527.44;5048260;28;19921;-88
2022/10/12 06:41:02;;;;;;;;;;;;;;;17.31;66.13;100526.81;5047836;28;20402;-88
2022/10/12 06:43:27;;;;;;;;;;;;;;;17.32;66.04;100538.38;5048754;28;19924;-87
2022/10/12 06:45:52;;;;;;;;;;;;;;;17.48;65.55;100536.13;5048973;28;19916;-87
2022/10/12 06:48:18;;;;;;;;;;;;;;;17.56;65.89;100536.75;5048552;28;19996;-88
2022/10/12 06:50:43;;;;;;;;;;;;;;;17.64;65.70;100536.50;5048608;28;19917;-87
2022/10/12 06:53:08;;;;;;;;;;;;;;;17.68;64.96;100541.72;5048437;28;19923;-89
2022/10/12 06:55:34;;;;;;;;;;;;;;;17.66;65.18;100548.03;5047818;28;19931;-88
2022/10/12 06:57:59;;;;;;;;;;;;;;;17.63;64.92;100540.97;5047535;28;19916;-88
2022/10/12 07:00:24;;;;;;;;;;;;;;;17.66;64.65;100542.69;5047439;28;20046;-88
2022/10/12 07:02:50;;;;;;;;;;;;;;;17.73;64.13;100546.91;5046177;28;20019;-87
2022/10/12 07:05:15;;;;;;;;;;;;;;;17.78;64.16;100541.41;5047454;28;19916;-87
2022/10/12 07:07:41;;;;;;;;;;;;;;;17.80;63.60;100548.47;5047783;28;19912;-87
2022/10/12 07:10:07;;;;;;;;;;;;;;;17.92;63.09;100549.91;5047837;28;20303;-87
2022/10/12 07:12:34;;;;;;;;;;;;;;;18.07;62.58;100552.09;5047550;28;19916;-88
2022/10/12 07:14:59;;;;;;;;;;;;;;;18.33;62.12;100550.34;5046992;28;19944;-87
2022/10/12 07:17:25;;;;;;;;;;;;;;;18.34;61.78;100553.91;5047525;28;19971;-88
2022/10/12 07:19:51;;;;;;;;;;;;;;;18.43;61.82;100546.44;5047364;28;20450;-87
2022/10/12 07:22:16;;;;;;;;;;;;;;;18.46;61.21;100540.13;5047386;28;19923;-90
2022/10/12 07:24:41;;;;;;;;;;;;;;;18.51;61.56;100545.31;5046608;28;20719;-88
2022/10/12 07:27:08;;;;;;;;;;;;;;;18.41;61.49;100545.63;5046533;28;20003;-88
2022/10/12 07:29:34;;;;;;;;;;;;;;;18.67;58.79;100551.00;5049076;28;19912;-88
2022/10/12 07:32:00;;;;;;;;;;;;;;;18.69;58.98;100551.81;5048870;28;19912;-87
2022/10/12 07:34:26;;;;;;;;;;;;;;;18.64;59.63;100551.97;5049117;28;19917;-91
2022/10/12 07:36:51;;;;;;;;;;;;;;;18.55;58.43;100557.63;5049332;28;19916;-88
2022/10/12 07:39:16;;;;;;;;;;;;;;;18.67;58.06;100551.84;5048691;28;19917;-88
2022/10/12 07:41:41;;;;;;;;;;;;;;;18.88;56.76;100552.06;5048019;28;19913;-89
2022/10/12 07:44:07;;;;;;;;;;;;;;;19.03;56.84;100558.66;5048700;28;19912;-87
2022/10/12 07:46:32;;;;;;;;;;;;;;;19.03;56.51;100554.19;5047879;28;19987;-85
2022/10/12 07:48:57;;;;;;;;;;;;;;;19.06;56.38;100555.88;5047571;28;20011;-87
2022/10/12 07:51:23;;;;;;;;;;;;;;;18.90;56.74;100558.22;5049921;28;19999;-86
2022/10/12 07:53:49;;;;;;;;;;;;;;;19.12;55.54;100553.84;5052429;28;20464;-86
2022/10/12 07:56:15;;;;;;;;;;;;;;;19.37;55.92;100552.06;5051351;28;19991;-86
2022/10/12 07:58:51;;;;;;;;;;;;;;;19.33;55.69;100545.97;5053874;28;20062;-87
2022/10/12 08:01:17;;;;;;;;;;;;;;;19.30;56.21;100540.72;5053641;28;19913;-87
2022/10/12 08:03:42;;;;;;;;;;;;;;;19.59;55.55;100544.97;5052520;28;19913;-88
2022/10/12 08:06:08;;;;;;;;;;;;;;;19.71;53.59;100540.94;5055199;28;19912;-88
2022/10/12 08:08:34;;;;;;;;;;;;;;;19.90;53.76;100542.91;5064556;28;20007;-83
2022/10/12 08:10:59;;;;;;;;;;;;;;;19.98;53.30;100538.09;5065399;28;19967;-88
2022/10/12 08:13:26;;;;;;;;;;;;;;;20.06;53.64;100543.16;5060841;28;19956;-88
2022/10/12 08:15:52;;;;;;;;;;;;;;;20.17;52.93;100539.09;5050650;28;19916;-88
2022/10/12 08:18:17;;;;;;;;;;;;;;;19.95;53.28;100539.09;5051365;28;20406;-88
2022/10/12 08:20:42;;;;;;;;;;;;;;;20.14;54.34;100539.25;5050500;28;20007;-87
2022/10/12 08:23:08;;;;;;;;;;;;;;;20.32;53.23;100544.75;5051406;28;19913;-89
2022/10/12 08:25:36;;;;;;;;;;;;;;;20.40;51.25;100531.91;5050855;28;19912;-88
2022/10/12 08:28:01;;;;;;;;;;;;;;;20.48;51.04;100529.78;5051003;28;19913;-88
2022/10/12 08:30:27;;;;;;;;;;;;;;;20.50;51.45;100535.94;5051069;28;19917;-88
2022/10/12 08:32:53;;;;;;;;;;;;;;;20.22;51.54;100528.19;5050562;28;20358;-88
2022/10/12 08:35:19;;;;;;;;;;;;;;;20.33;52.58;100535.78;5050647;28;19917;-88
2022/10/12 08:37:44;;;;;;;;;;;;;;;20.62;52.32;100533.66;5051201;28;19931;-88
2022/10/12 08:40:15;;;;;;;;;;;;;;;20.50;51.45;100535.94;5050018;28;19923;-85
2022/10/12 08:42:48;;;;;;;;;;;;;;;20.47;52.12;100535.19;5050200;28;19913;-85
2022/10/12 08:45:29;;;;;;;;;;;;;;;20.54;52.48;100534.88;5049657;28;19923;-86
2022/10/12 08:47:57;;;;;;;;;;;;;;;20.61;51.87;100532.78;5049173;28;20580;-85
2022/10/12 08:50:28;;;;;;;;;;;;;;;21.00;49.84;100541.84;5050265;28;19916;-88
2022/10/12 08:52:59;;;;;;;;;;;;;;;21.09;48.57;100536.06;5050120;28;20015;-88
2022/10/12 08:55:32;;;;;;;;;;;;;;;20.98;48.78;100533.88;5049560;28;19956;-86
2022/10/12 08:57:57;;;;;;;;;;;;;;;21.05;48.39;100542.50;5049579;28;19913;-87
2022/10/12 09:00:23;;;;;;;;;;;;;;;20.81;48.54;100540.00;5047952;28;19947;-86
2022/10/12 09:02:51;;;;;;;;;;;;;;;20.87;49.22;100544.22;5048867;28;19916;-86
2022/10/12 09:05:36;;;;;;;;;;;;;;;21.15;49.37;100533.13;5049474;28;19948;-87
2022/10/12 09:08:01;;;;;;;;;;;;;;;21.15;49.53;100533.13;5050638;28;19924;-89
2022/10/12 09:10:26;;;;;;;;;;;;;;;21.21;49.24;100532.84;5050029;28;19921;-94
2022/10/12 09:13:18;;;;;;;;;;;;;;;21.01;49.68;100536.41;5050980;28;19920;-88
2022/10/12 09:15:50;;;;;;;;;;;;;;;21.11;49.65;100539.56;5043913;28;20310;-90
2022/10/12 09:18:38;;;;;;;;;;;;;;;21.13;49.82;100539.47;5040351;28;19943;-89
2022/10/12 09:21:06;;;;;;;;;;;;;;;21.40;50.34;100537.34;5041494;28;20046;-88
2022/10/12 09:23:37;;;;;;;;;;;;;;;21.27;47.99;100540.59;5049012;28;20007;-85
2022/10/12 09:26:13;;;;;;;;;;;;;;;21.28;47.82;100539.63;5064151;28;19931;-87
2022/10/12 09:28:42;;;;;;;;;;;;;;;21.04;48.13;100533.59;5049476;28;19928;-87
2022/10/12 09:31:10;;;;;;;;;;;;;;;20.75;50.44;100537.59;5057338;28;20380;-89
2022/10/12 09:33:53;;;;;;;;;;;;;;;21.14;49.87;100542.09;5070743;28;20458;-86
2022/10/12 09:36:19;;;;;;;;;;;;;;;21.57;47.49;100534.75;5055067;28;19917;-87
2022/10/12 09:38:45;;;;;;;;;;;;;;;21.21;45.73;100534.63;5049676;28;19974;-87
2022/10/12 09:41:30;;;;;;;;;;;;;;;21.08;47.01;100537.88;5047521;28;19913;-86
2022/10/12 09:43:58;;;;;;;;;;;;;;;21.39;47.19;100530.22;5036407;28;19940;-89
2022/10/12 09:46:30;;;;;;;;;;;;;;;21.73;46.13;100529.53;5046530;28;20283;-89
2022/10/12 09:48:57;;;;;;;;;;;;;;;22.23;43.63;100522.63;5054210;28;19974;-89
2022/10/12 09:51:23;;;;;;;;;;;;;;;22.09;43.83;100523.31;5048557;28;19924;-87
2022/10/12 09:53:49;;;;;;;;;;;;;;;22.03;42.21;100526.31;5047191;28;19962;-90
2022/10/12 09:56:26;;;;;;;;;;;;;;;22.18;41.51;100520.16;5063302;28;20409;-88
2022/10/12 09:58:59;;;;;;;;;;;;;;;22.08;43.69;100521.56;5049622;28;19917;-88
2022/10/12 10:01:26;;;;;;;;;;;;;;;22.32;42.23;100510.53;5048614;28;20058;-87
2022/10/12 10:04:10;;;;;;;;;;;;;;;22.57;39.37;100511.97;5049372;28;19924;-87
2022/10/12 10:06:37;;;;;;;;;;;;;;;22.60;40.62;100512.69;5049127;28;20391;-87
2022/10/12 10:09:03;;;;;;;;;;;;;;;22.77;39.06;100502.84;5048399;28;19924;-87
2022/10/12 10:11:32;;;;;;;;;;;;;;;22.63;41.74;100506.28;5048279;28;19917;-88
2022/10/12 10:13:59;;;;;;;;;;;;;;;22.03;43.10;100514.66;5047969;28;19916;-89
2022/10/12 10:16:25;;;;;;;;;;;;;;;22.41;42.60;100499.31;5048173;28;19981;-87
2022/10/12 10:18:55;;;;;;;;;;;;;;;22.39;42.70;100505.75;5049039;28;19916;-90
2022/10/12 10:21:29;;;;;;;;;;;;;;;22.46;42.36;100504.47;5047887;28;19931;-87
2022/10/12 10:23:56;;;;;;;;;;;;;;;22.56;42.20;100502.19;5048051;28;19928;-87
2022/10/12 10:26:23;;;;;;;;;;;;;;;22.69;42.13;100492.50;5047754;28;19916;-87
2022/10/12 10:28:49;;;;;;;;;;;;;;;22.91;42.45;100494.06;5047933;28;19917;-87
2022/10/12 10:31:21;;;;;;;;;;;;;;;22.99;41.94;100491.84;5048798;28;19939;-90
2022/10/12 10:34:05;;;;;;;;;;;;;;;22.58;42.81;100484.16;5047948;28;19912;-91
2022/10/12 10:36:33;;;;;;;;;;;;;;;22.38;42.68;100467.22;5049951;28;19995;-89
2022/10/12 10:39:04;;;;;;;;;;;;;;;22.42;42.64;100479.56;5048790;28;20429;-90
2022/10/12 10:41:37;;;;;;;;;;;;;;;22.27;44.89;100470.44;5047552;28;19917;-91
2022/10/12 10:44:03;;;;;;;;;;;;;;;22.00;45.25;100470.91;5048119;28;19920;-88
2022/10/12 10:46:30;;;;;;;;;;;;;;;21.63;45.94;100458.44;5049051;28;20314;-92
2022/10/12 10:49:05;;;;;;;;;;;;;;;21.89;44.39;100456.25;5050011;28;19962;-89
2022/10/12 10:51:42;;;;;;;;;;;;;;;22.29;43.19;100455.13;5049452;28;20375;-89
2022/10/12 10:54:22;;;;;;;;;;;;;;;22.18;44.06;100453.00;5048816;28;19919;-90
2022/10/12 10:56:52;;;;;;;;;;;;;;;22.41;43.11;100455.47;5049292;28;19996;-89
2022/10/12 10:59:20;;;;;;;;;;;;;;;22.30;43.88;100447.91;5049397;28;19916;-90
2022/10/12 11:01:58;;;;;;;;;;;;;;;22.72;42.78;100446.63;5049501;28;19967;-88
2022/10/12 11:04:45;;;;;;;;;;;;;;;22.79;42.22;100447.19;5049466;28;19925;-87
2022/10/12 11:07:16;;;;;;;;;;;;;;;22.51;41.80;100448.66;5064458;28;20341;-89
2022/10/12 11:09:43;;;;;;;;;;;;;;;22.72;41.65;100435.88;5049394;28;19913;-88
2022/10/12 11:12:20;;;;;;;;;;;;;;;22.94;41.82;100430.22;5049576;28;19998;-88
2022/10/12 11:14:50;;;;;;;;;;;;;;;23.07;41.81;100428.56;5048751;28;20399;-88
2022/10/12 11:17:18;;;;;;;;;;;;;;;23.27;41.96;100432.00;5049233;28;19924;-89
2022/10/12 11:19:50;;;;;;;;;;;;;;;23.45;40.56;100423.84;5048462;28;19987;-90
2022/10/12 11:22:18;;;;;;;;;;;;;;;23.08;40.94;100424.06;5048142;28;19921;-89
2022/10/12 11:24:49;;;;;;;;;;;;;;;23.08;40.08;100426.75;5048039;28;19940;-89
2022/10/12 11:27:28;;;;;;;;;;;;;;;23.10;40.71;100416.81;5053034;28;19916;-90
2022/10/12 11:29:55;;;;;;;;;;;;;;;23.18;40.13;100419.06;5050718;28;19917;-88
2022/10/12 11:32:32;;;;;;;;;;;;;;;22.96;40.25;100420.22;5052070;28;20379;-89
2022/10/12 11:35:00;;;;;;;;;;;;;;;22.69;40.39;100414.53;5050683;28;19920;-91
2022/10/12 11:37:35;;;;;;;;;;;;;;;22.51;41.17;100413.72;5051932;28;19990;-89
2022/10/12 11:40:03;;;;;;;;;;;;;;;22.89;40.08;100408.94;5051685;28;19917;-89
2022/10/12 11:42:33;;;;;;;;;;;;;;;23.18;39.38;100408.31;5052026;28;19959;-89
2022/10/12 11:45:02;;;;;;;;;;;;;;;22.88;40.40;100403.66;5051691;28;19909;-91
2022/10/12 11:47:48;;;;;;;;;;;;;;;23.07;39.59;100398.09;5049645;28;20349;-90
2022/10/12 11:50:19;;;;;;;;;;;;;;;22.56;39.91;100410.78;5049914;28;19913;-91
2022/10/12 11:52:47;;;;;;;;;;;;;;;22.58;39.79;100409.72;5050810;28;19962;-90
2022/10/12 11:55:24;;;;;;;;;;;;;;;22.74;39.01;100398.13;5051017;28;19916;-91
2022/10/12 11:57:50;;;;;;;;;;;;;;;23.03;38.84;100391.16;5050634;28;19909;-90
2022/10/12 12:00:21;;;;;;;;;;;;;;;22.66;38.96;100391.38;5050608;28;20453;-90
2022/10/12 12:03:04;;;;;;;;;;;;;;;22.64;37.95;100390.56;5052177;28;19913;-88
2022/10/12 12:05:30;;;;;;;;;;;;;;;22.61;39.42;100388.06;5050885;28;19917;-89
2022/10/12 12:07:55;;;;;;;;;;;;;;;22.70;38.75;100392.94;5051328;28;19921;-88
2022/10/12 12:10:27;;;;;;;;;;;;;;;23.00;38.10;100384.16;5067541;28;20417;-88
2022/10/12 12:13:09;;;;;;;;;;;;;;;22.97;38.79;100376.25;5050943;28;19913;-89
2022/10/12 12:15:36;;;;;;;;;;;;;;;22.97;39.11;100378.03;5049371;28;20377;-88
2022/10/12 12:18:10;;;;;;;;;;;;;;;22.68;40.52;100375.16;5049554;28;19923;-89
2022/10/12 12:20:42;;;;;;;;;;;;;;;22.69;40.60;100377.78;5049620;28;20052;-89
2022/10/12 12:23:20;;;;;;;;;;;;;;;22.84;41.24;100378.72;5050751;28;19912;-89
2022/10/12 12:26:02;;;;;;;;;;;;;;;22.70;42.29;100371.41;5049130;28;19946;-89
2022/10/12 12:28:28;;;;;;;;;;;;;;;22.55;41.96;100374.94;5050896;28;19967;-90
2022/10/12 12:30:59;;;;;;;;;;;;;;;22.44;43.25;100370.16;5051234;28;20438;-90
2022/10/12 12:33:28;;;;;;;;;;;;;;;22.35;43.05;100374.22;5050767;28;20306;-89
2022/10/12 12:36:01;;;;;;;;;;;;;;;22.15;43.24;100375.22;5051125;28;19909;-90
2022/10/12 12:38:29;;;;;;;;;;;;;;;22.37;42.62;100370.56;5049030;28;19916;-89
2022/10/12 12:41:00;;;;;;;;;;;;;;;22.65;42.34;100369.94;5050249;28;19916;-90
2022/10/12 12:43:28;;;;;;;;;;;;;;;22.46;42.98;100370.06;5050676;28;19917;-89